Time;durP1;ratioP1;P1;durP2;ratioP2;P2;SDS_P1;SDS_P2;PMS_P1;PMS_P2;Temp;Humidity;BMP_temperature;BMP_pressure;BME280_temperature;BME280_humidity;BME280_pressure;Samples;Min_cycle;Max_cycle;Signal;HPM_P1;HPM_P2
2023/09/02 00:01:59;;;;;;;3.70;2.42;;;17.20;99.90;;;;;;5061256;28;20173;-66
2023/09/02 00:04:30;;;;;;;4.07;2.70;;;17.20;99.90;;;;;;5061351;28;20193;-66
2023/09/02 00:06:56;;;;;;;3.45;2.67;;;17.20;99.90;;;;;;5061180;28;20161;-66
2023/09/02 00:09:24;;;;;;;3.10;2.80;;;17.20;99.90;;;;;;5060864;28;20203;-66
2023/09/02 00:11:52;;;;;;;4.03;3.03;;;17.20;99.90;;;;;;5060829;28;20169;-67
2023/09/02 00:14:23;;;;;;;2.90;2.65;;;17.10;99.90;;;;;;5061077;28;20199;-66
2023/09/02 00:16:54;;;;;;;3.95;3.40;;;17.10;99.90;;;;;;5060922;28;20176;-66
2023/09/02 00:19:22;;;;;;;5.53;3.13;;;17.10;99.90;;;;;;5061084;28;20220;-66
2023/09/02 00:21:48;;;;;;;4.15;3.30;;;17.10;99.90;;;;;;5061286;28;20187;-67
2023/09/02 00:24:16;;;;;;;4.03;3.45;;;17.10;99.90;;;;;;5060953;28;20259;-66
2023/09/02 00:26:44;;;;;;;3.80;3.03;;;17.10;99.90;;;;;;5060920;28;20202;-67
2023/09/02 00:29:15;;;;;;;5.40;3.80;;;17.10;99.90;;;;;;5060719;28;20199;-66
2023/09/02 00:31:40;;;;;;;5.32;4.30;;;17.10;99.90;;;;;;5060557;28;20204;-66
2023/09/02 00:34:08;;;;;;;5.20;3.65;;;17.10;99.90;;;;;;5060526;28;20207;-66
2023/09/02 00:36:39;;;;;;;5.45;4.40;;;17.10;99.90;;;;;;5061093;28;20195;-66
2023/09/02 00:39:05;;;;;;;4.75;4.10;;;17.10;99.90;;;;;;5069903;28;20214;-66
2023/09/02 00:41:52;;;;;;;5.50;4.63;;;17.10;99.90;;;;;;5060885;28;20239;-67
2023/09/02 00:44:27;;;;;;;7.47;4.88;;;17.10;99.90;;;;;;5060666;28;20175;-66
2023/09/02 00:46:58;;;;;;;6.57;4.57;;;17.10;99.90;;;;;;5066152;28;20199;-66
2023/09/02 00:49:24;;;;;;;5.72;4.43;;;17.10;99.90;;;;;;5080181;28;20171;-65
2023/09/02 00:51:52;;;;;;;7.40;5.38;;;17.10;99.90;;;;;;5080689;28;20207;-67
2023/09/02 00:54:23;;;;;;;5.55;4.63;;;17.10;99.90;;;;;;5080124;28;20172;-67
2023/09/02 00:56:49;;;;;;;6.93;4.43;;;17.10;99.90;;;;;;5079964;28;20250;-68
2023/09/02 00:59:15;;;;;;;6.38;5.00;;;17.10;99.90;;;;;;5080234;28;20192;-66
2023/09/02 01:01:49;;;;;;;6.65;4.78;;;17.10;99.90;;;;;;5080272;28;20199;-66
2023/09/02 01:04:23;;;;;;;7.68;5.00;;;17.10;99.90;;;;;;5080924;28;20239;-66
2023/09/02 01:06:52;;;;;;;6.65;4.80;;;17.10;99.90;;;;;;5082163;28;20472;-67
2023/09/02 01:09:18;;;;;;;6.55;5.05;;;17.10;99.90;;;;;;5081380;28;20172;-67
2023/09/02 01:11:46;;;;;;;5.80;4.65;;;17.10;99.90;;;;;;5079706;28;20277;-67
2023/09/02 01:14:22;;;;;;;6.38;5.10;;;17.10;99.90;;;;;;5080037;28;20190;-67
2023/09/02 01:16:49;;;;;;;5.60;4.68;;;17.10;99.90;;;;;;5079250;28;20175;-66
2023/09/02 01:19:18;;;;;;;6.35;5.15;;;17.10;99.90;;;;;;5079535;28;20178;-66
2023/09/02 01:22:17;;;;;;;5.75;4.68;;;17.10;99.90;;;;;;5079947;28;20179;-66
2023/09/02 01:24:43;;;;;;;6.95;4.53;;;17.10;99.90;;;;;;5082041;28;20199;-67
2023/09/02 01:27:24;;;;;;;5.15;4.43;;;17.00;99.90;;;;;;5099781;28;20168;-66
2023/09/02 01:29:57;;;;;;;5.95;4.68;;;17.10;99.90;;;;;;5080266;28;20176;-66
2023/09/02 01:32:42;;;;;;;5.22;4.40;;;17.10;99.90;;;;;;5081186;28;20175;-66
2023/09/02 01:35:18;;;;;;;4.68;4.10;;;17.10;99.90;;;;;;5082603;28;20176;-66
2023/09/02 01:37:55;;;;;;;4.85;3.88;;;17.10;99.90;;;;;;5084261;28;20176;-66
2023/09/02 01:40:29;;;;;;;5.63;4.07;;;17.10;99.90;;;;;;5083983;28;20202;-65
2023/09/02 01:43:01;;;;;;;4.95;3.80;;;17.10;99.90;;;;;;5101687;28;20172;-66
2023/09/02 01:45:36;;;;;;;4.47;3.58;;;17.00;99.90;;;;;;5086985;28;20166;-66
2023/09/02 01:48:03;;;;;;;4.20;3.60;;;17.00;99.90;;;;;;5087534;28;20156;-67
2023/09/02 01:50:33;;;;;;;4.03;3.60;;;17.00;99.90;;;;;;5078544;28;20191;-66
2023/09/02 01:53:02;;;;;;;4.20;3.70;;;17.00;99.90;;;;;;5078788;28;20164;-67
2023/09/02 01:55:29;;;;;;;3.85;3.45;;;17.00;99.90;;;;;;5078842;28;20186;-66
2023/09/02 01:58:05;;;;;;;5.15;3.55;;;16.90;99.90;;;;;;5078558;28;20183;-68
2023/09/02 02:00:31;;;;;;;5.13;3.80;;;16.90;99.90;;;;;;5080107;28;20184;-66
2023/09/02 02:02:58;;;;;;;4.10;3.40;;;16.90;99.90;;;;;;5079067;28;20178;-67
2023/09/02 02:05:47;;;;;;;4.22;3.58;;;16.80;99.90;;;;;;5079697;28;20559;-67
2023/09/02 02:08:26;;;;;;;4.88;3.45;;;16.90;99.90;;;;;;5098602;28;20156;-67
2023/09/02 02:10:54;;;;;;;4.07;3.58;;;16.80;99.90;;;;;;5081304;28;20217;-67
2023/09/02 02:13:22;;;;;;;4.50;3.50;;;16.80;99.90;;;;;;5063973;28;20176;-66
2023/09/02 02:15:50;;;;;;;5.80;4.07;;;16.80;99.90;;;;;;5079731;28;20437;-66
2023/09/02 02:18:16;;;;;;;4.95;3.92;;;16.80;99.90;;;;;;5060228;28;20172;-67
2023/09/02 02:21:00;;;;;;;6.10;4.57;;;16.70;99.90;;;;;;5060480;28;20204;-66
2023/09/02 02:23:29;;;;;;;5.35;3.80;;;16.70;99.90;;;;;;5062962;28;20175;-67
2023/09/02 02:26:04;;;;;;;5.95;3.97;;;16.70;99.90;;;;;;5061065;28;20196;-67
2023/09/02 02:28:30;;;;;;;3.88;3.17;;;16.60;99.90;;;;;;5058969;28;20183;-66
2023/09/02 02:31:02;;;;;;;3.83;3.38;;;16.60;99.90;;;;;;5062305;28;20197;-66
2023/09/02 02:33:28;;;;;;;3.83;3.40;;;16.60;99.90;;;;;;5061365;28;20182;-65
2023/09/02 02:35:54;;;;;;;3.90;3.22;;;16.50;99.90;;;;;;5059322;28;20201;-67
2023/09/02 02:38:22;;;;;;;5.38;3.25;;;16.50;99.90;;;;;;5070148;28;20207;-66
2023/09/02 02:40:51;;;;;;;3.20;2.80;;;16.50;99.90;;;;;;5079458;28;20202;-68
2023/09/02 02:43:16;;;;;;;5.10;3.45;;;16.50;99.90;;;;;;5080345;28;20172;-66
2023/09/02 02:45:47;;;;;;;5.53;4.18;;;16.40;99.90;;;;;;5085690;28;20178;-65
2023/09/02 02:48:15;;;;;;;6.57;4.38;;;16.40;99.90;;;;;;5083338;28;20181;-66
2023/09/02 02:50:41;;;;;;;7.40;4.47;;;16.40;99.90;;;;;;5079759;28;20183;-66
2023/09/02 02:53:09;;;;;;;6.88;4.22;;;16.40;99.90;;;;;;5079274;28;20248;-66
2023/09/02 02:55:34;;;;;;;7.00;4.85;;;16.40;99.90;;;;;;5078901;28;20270;-66
2023/09/02 02:58:03;;;;;;;6.40;4.65;;;16.40;99.90;;;;;;5078738;28;20267;-67
2023/09/02 03:00:34;;;;;;;6.10;5.22;;;16.40;99.90;;;;;;5078121;28;20195;-67
2023/09/02 03:03:00;;;;;;;5.82;4.60;;;16.40;99.90;;;;;;5078934;28;20188;-67
2023/09/02 03:05:26;;;;;;;6.40;5.38;;;16.40;99.90;;;;;;5078650;28;20218;-66
2023/09/02 03:07:55;;;;;;;6.80;5.35;;;16.40;99.90;;;;;;5078551;28;20228;-67
2023/09/02 03:10:25;;;;;;;8.43;6.53;;;16.50;99.90;;;;;;5078128;28;20274;-66
2023/09/02 03:12:50;;;;;;;8.13;6.30;;;16.50;99.90;;;;;;5078512;28;20199;-66
2023/09/02 03:15:21;;;;;;;8.00;6.22;;;16.50;99.90;;;;;;5079926;28;20172;-67
2023/09/02 03:17:49;;;;;;;7.40;6.10;;;16.50;99.90;;;;;;5078924;28;20286;-67
2023/09/02 03:20:21;;;;;;;8.27;6.18;;;16.50;99.90;;;;;;5080737;28;20268;-67
2023/09/02 03:22:47;;;;;;;8.80;6.40;;;16.50;99.90;;;;;;5082295;28;20254;-67
2023/09/02 03:25:12;;;;;;;9.38;6.63;;;16.60;99.90;;;;;;5083323;28;20192;-66
2023/09/02 03:27:41;;;;;;;8.27;6.40;;;16.60;99.90;;;;;;5082155;28;20172;-67
2023/09/02 03:30:10;;;;;;;8.80;6.13;;;16.60;99.90;;;;;;5082552;28;20381;-67
2023/09/02 03:32:36;;;;;;;6.63;5.72;;;16.60;99.90;;;;;;5081934;28;20187;-67
2023/09/02 03:35:07;;;;;;;6.50;5.13;;;16.60;99.90;;;;;;5082103;28;20179;-67
2023/09/02 03:37:33;;;;;;;6.88;5.50;;;16.60;99.90;;;;;;5081688;28;20183;-66
2023/09/02 03:40:04;;;;;;;9.27;5.40;;;16.60;99.90;;;;;;5081578;28;20204;-66
2023/09/02 03:42:32;;;;;;;5.80;4.57;;;16.60;99.90;;;;;;5082029;28;20170;-67
2023/09/02 03:44:59;;;;;;;6.05;4.55;;;16.60;99.90;;;;;;5081439;28;20215;-66
2023/09/02 03:47:33;;;;;;;4.93;4.28;;;16.60;99.90;;;;;;5082170;28;20180;-67
2023/09/02 03:50:03;;;;;;;6.10;4.40;;;16.60;99.90;;;;;;5081945;28;20215;-67
2023/09/02 03:52:34;;;;;;;5.10;4.30;;;16.60;99.90;;;;;;5081645;28;20176;-66
2023/09/02 03:55:03;;;;;;;4.45;3.80;;;16.60;99.90;;;;;;5081144;28;20563;-67
2023/09/02 03:57:38;;;;;;;5.15;3.83;;;16.60;99.90;;;;;;5081200;28;20191;-67
2023/09/02 04:00:05;;;;;;;4.75;4.10;;;16.60;99.90;;;;;;5081389;28;20233;-67
2023/09/02 04:02:31;;;;;;;4.88;4.00;;;16.60;99.90;;;;;;5081335;28;20257;-66
2023/09/02 04:05:03;;;;;;;3.85;3.45;;;16.60;99.90;;;;;;5081730;28;20168;-66
2023/09/02 04:07:29;;;;;;;4.82;3.97;;;16.60;99.90;;;;;;5081214;28;20168;-68
2023/09/02 04:09:56;;;;;;;5.95;3.72;;;16.60;99.90;;;;;;5061229;28;20184;-67
2023/09/02 04:12:22;;;;;;;3.53;3.22;;;16.50;99.90;;;;;;5061187;28;20172;-66
2023/09/02 04:14:48;;;;;;;4.78;3.55;;;16.60;99.90;;;;;;5061603;28;20225;-67
2023/09/02 04:17:19;;;;;;;4.00;3.42;;;16.50;99.90;;;;;;5078852;28;20330;-67
2023/09/02 04:19:44;;;;;;;4.20;3.33;;;16.50;99.90;;;;;;5061183;28;20188;-67
2023/09/02 04:22:12;;;;;;;4.45;3.33;;;16.50;99.90;;;;;;5061183;28;20259;-67
2023/09/02 04:24:38;;;;;;;4.18;3.60;;;16.50;99.90;;;;;;5061201;28;20259;-67
2023/09/02 04:27:09;;;;;;;5.30;3.50;;;16.50;99.90;;;;;;5061647;28;20231;-66
2023/09/02 04:29:38;;;;;;;4.18;3.45;;;16.40;99.90;;;;;;5061327;28;20172;-66
2023/09/02 04:32:06;;;;;;;4.03;3.47;;;16.40;99.90;;;;;;5059387;28;20291;-66
2023/09/02 04:34:34;;;;;;;4.30;3.85;;;16.40;99.90;;;;;;5060709;28;20164;-66
2023/09/02 04:37:02;;;;;;;3.92;3.38;;;16.40;99.90;;;;;;5060756;28;20289;-67
2023/09/02 04:39:30;;;;;;;5.22;3.42;;;16.40;99.90;;;;;;5059348;28;20183;-67
2023/09/02 04:41:58;;;;;;;4.50;3.50;;;16.40;99.90;;;;;;5060268;28;20287;-66
2023/09/02 04:44:27;;;;;;;5.40;3.85;;;16.40;99.90;;;;;;5060614;28;20176;-66
2023/09/02 04:46:55;;;;;;;4.57;3.83;;;16.40;99.90;;;;;;5060154;28;20173;-67
2023/09/02 04:49:24;;;;;;;6.30;4.03;;;16.40;99.90;;;;;;5060546;28;20161;-66
2023/09/02 04:51:52;;;;;;;5.18;4.10;;;16.40;99.90;;;;;;5060614;28;20187;-67
2023/09/02 04:54:23;;;;;;;7.10;5.43;;;16.40;99.90;;;;;;5060533;28;20215;-66
2023/09/02 04:56:57;;;;;;;8.15;5.78;;;16.40;99.90;;;;;;5060369;28;20199;-66
2023/09/02 04:59:26;;;;;;;7.35;5.57;;;16.40;99.90;;;;;;5061058;28;20169;-67
2023/09/02 05:01:57;;;;;;;7.53;5.50;;;16.40;99.90;;;;;;5060654;28;20271;-67
2023/09/02 05:04:24;;;;;;;7.30;5.47;;;16.40;99.90;;;;;;5060339;28;20252;-67
2023/09/02 05:06:55;;;;;;;7.03;5.30;;;16.40;99.90;;;;;;5060344;28;20183;-67
2023/09/02 05:09:23;;;;;;;6.60;5.07;;;16.40;99.90;;;;;;5060091;28;20193;-66
2023/09/02 05:11:51;;;;;;;7.43;5.65;;;16.40;99.90;;;;;;5060766;28;20237;-66
2023/09/02 05:14:22;;;;;;;7.10;5.80;;;16.40;99.90;;;;;;5060189;28;20254;-67
2023/09/02 05:16:53;;;;;;;7.40;5.60;;;16.50;99.90;;;;;;5059647;28;20176;-67
2023/09/02 05:19:18;;;;;;;7.32;5.50;;;16.50;99.90;;;;;;5065544;28;20282;-67
2023/09/02 05:21:46;;;;;;;7.78;4.95;;;16.50;99.90;;;;;;5079516;28;20344;-66
2023/09/02 05:24:11;;;;;;;8.15;5.88;;;16.50;99.90;;;;;;5080180;28;20199;-67
2023/09/02 05:26:43;;;;;;;7.90;5.80;;;16.50;99.90;;;;;;5074567;28;20180;-66
2023/09/02 05:29:11;;;;;;;8.23;6.07;;;16.60;99.90;;;;;;5060143;28;20219;-74
2023/09/02 05:31:36;;;;;;;6.30;4.78;;;16.60;99.90;;;;;;5059344;28;20195;-74
2023/09/02 05:34:02;;;;;;;7.70;5.55;;;16.60;99.90;;;;;;5059586;28;20181;-74
2023/09/02 05:36:28;;;;;;;7.03;5.60;;;16.60;99.90;;;;;;5059404;28;20172;-74
2023/09/02 05:38:55;;;;;;;10.20;7.05;;;16.60;99.90;;;;;;5059695;28;20184;-74
2023/09/02 05:41:21;;;;;;;7.13;5.07;;;16.70;99.90;;;;;;5059436;28;20192;-75
2023/09/02 05:43:50;;;;;;;6.72;5.25;;;16.70;99.90;;;;;;5058962;28;20188;-73
2023/09/02 05:46:16;;;;;;;7.50;5.63;;;16.70;99.90;;;;;;5059330;28;20204;-74
2023/09/02 05:48:41;;;;;;;6.60;5.18;;;16.80;99.90;;;;;;5059238;28;20169;-73
2023/09/02 05:51:10;;;;;;;5.80;4.72;;;16.80;99.90;;;;;;5059247;28;20208;-74
2023/09/02 05:53:48;;;;;;;5.97;4.75;;;16.90;99.90;;;;;;5059507;28;20180;-73
2023/09/02 05:56:14;;;;;;;5.75;4.75;;;16.90;99.90;;;;;;5058905;28;20211;-74
2023/09/02 05:58:39;;;;;;;5.45;4.32;;;16.90;99.90;;;;;;5059366;28;20172;-74
2023/09/02 06:01:10;;;;;;;5.68;4.75;;;17.00;99.90;;;;;;5064387;28;20220;-74
2023/09/02 06:03:42;;;;;;;5.88;4.65;;;17.10;99.90;;;;;;5058996;28;20179;-74
2023/09/02 06:06:14;;;;;;;6.13;4.80;;;17.10;99.90;;;;;;5058716;28;20199;-74
2023/09/02 06:08:44;;;;;;;5.93;4.88;;;17.10;99.90;;;;;;5059065;28;20177;-74
2023/09/02 06:11:13;;;;;;;5.90;4.65;;;17.10;99.90;;;;;;5058729;28;20224;-74
2023/09/02 06:13:50;;;;;;;5.05;4.45;;;17.20;99.90;;;;;;5059475;28;20178;-73
2023/09/02 06:16:16;;;;;;;4.40;3.75;;;17.20;99.90;;;;;;5059403;28;20259;-73
2023/09/02 06:18:41;;;;;;;5.00;3.78;;;17.30;99.90;;;;;;5059117;28;20200;-74
2023/09/02 06:21:32;;;;;;;4.75;4.25;;;17.30;99.90;;;;;;5058859;28;20200;-74
2023/09/02 06:24:00;;;;;;;4.82;4.20;;;17.40;99.90;;;;;;5046636;28;20170;-74
2023/09/02 06:26:26;;;;;;;4.07;3.53;;;17.40;99.90;;;;;;5038870;28;20173;-74
2023/09/02 06:28:54;;;;;;;4.38;3.85;;;17.50;99.90;;;;;;5038979;28;20173;-74
2023/09/02 06:31:25;;;;;;;4.38;3.90;;;17.50;99.90;;;;;;5038570;28;20169;-74
2023/09/02 06:34:02;;;;;;;4.47;4.00;;;17.50;99.90;;;;;;5038241;28;20181;-71
2023/09/02 06:36:27;;;;;;;3.58;3.22;;;17.60;99.90;;;;;;5038579;28;20197;-74
2023/09/02 06:38:53;;;;;;;4.60;3.67;;;17.60;99.90;;;;;;5038474;28;20236;-74
2023/09/02 06:41:19;;;;;;;3.22;2.92;;;17.60;99.90;;;;;;5038895;28;20292;-74
2023/09/02 06:43:44;;;;;;;3.58;3.10;;;17.70;99.90;;;;;;5038439;28;20201;-74
2023/09/02 06:46:20;;;;;;;3.75;3.17;;;17.70;99.90;;;;;;5039397;28;20230;-74
2023/09/02 06:48:47;;;;;;;4.18;3.25;;;17.80;99.90;;;;;;5078385;28;20202;-72
2023/09/02 06:51:16;;;;;;;3.40;2.92;;;17.80;99.90;;;;;;5078322;28;20214;-73
2023/09/02 06:53:44;;;;;;;3.70;3.33;;;17.90;99.90;;;;;;5078482;28;20204;-73
2023/09/02 06:56:12;;;;;;;3.20;2.80;;;18.00;99.90;;;;;;5083378;28;20202;-74
2023/09/02 06:58:39;;;;;;;3.67;3.30;;;18.00;99.90;;;;;;5082281;28;20227;-75
2023/09/02 07:01:14;;;;;;;3.40;3.08;;;18.10;99.90;;;;;;5082945;28;20212;-74
2023/09/02 07:03:39;;;;;;;3.45;2.72;;;18.10;99.90;;;;;;5081842;28;20195;-73
2023/09/02 07:06:16;;;;;;;3.10;2.65;;;18.20;99.90;;;;;;5082610;28;20172;-74
2023/09/02 07:08:52;;;;;;;3.70;3.03;;;18.20;99.90;;;;;;5082422;28;20334;-73
2023/09/02 07:11:21;;;;;;;3.33;2.97;;;18.20;99.90;;;;;;5080235;28;20182;-73
2023/09/02 07:13:50;;;;;;;3.50;3.10;;;18.20;99.90;;;;;;5061951;28;20184;-68
2023/09/02 07:16:15;;;;;;;5.05;3.45;;;18.30;99.90;;;;;;5062534;28;20202;-74
2023/09/02 07:18:43;;;;;;;3.95;3.17;;;18.40;99.90;;;;;;5062189;28;20196;-74
2023/09/02 07:21:26;;;;;;;4.22;3.13;;;18.40;99.90;;;;;;5061915;28;20200;-74
2023/09/02 07:23:55;;;;;;;4.43;3.58;;;18.50;99.90;;;;;;5061708;28;20177;-74
2023/09/02 07:26:21;;;;;;;4.68;3.65;;;18.50;99.90;;;;;;5062193;28;20172;-72
2023/09/02 07:28:46;;;;;;;4.00;3.10;;;18.60;99.90;;;;;;5061648;28;20227;-75
2023/09/02 07:31:12;;;;;;;4.53;3.85;;;18.60;99.90;;;;;;5061768;28;20200;-75
2023/09/02 07:33:46;;;;;;;6.20;3.45;;;18.70;99.90;;;;;;5061628;28;20172;-74
2023/09/02 07:36:17;;;;;;;4.72;3.95;;;18.70;99.90;;;;;;5061602;28;20200;-74
2023/09/02 07:38:53;;;;;;;4.88;3.95;;;18.70;99.90;;;;;;5061600;28;20168;-74
2023/09/02 07:41:19;;;;;;;3.97;3.45;;;18.70;99.90;;;;;;5061173;28;20211;-74
2023/09/02 07:43:47;;;;;;;4.05;3.60;;;18.70;99.90;;;;;;5060985;28;20180;-74
2023/09/02 07:46:18;;;;;;;4.20;3.50;;;18.70;99.90;;;;;;5061252;28;20203;-74
2023/09/02 07:48:49;;;;;;;3.92;3.40;;;18.80;99.90;;;;;;5061495;28;20169;-74
2023/09/02 07:51:18;;;;;;;3.83;3.40;;;18.80;99.90;;;;;;5060999;28;20231;-74
2023/09/02 07:53:49;;;;;;;3.72;3.38;;;18.80;99.90;;;;;;5060925;28;20177;-72
2023/09/02 07:56:22;;;;;;;3.70;2.90;;;18.90;99.90;;;;;;5061464;28;20215;-73
2023/09/02 07:58:53;;;;;;;3.10;2.80;;;18.90;99.90;;;;;;5061171;28;20181;-73
2023/09/02 08:01:30;;;;;;;3.58;2.88;;;18.90;99.90;;;;;;5061059;28;20227;-72
2023/09/02 08:03:58;;;;;;;3.20;2.80;;;18.90;99.90;;;;;;5060889;28;20173;-74
2023/09/02 08:06:24;;;;;;;3.03;2.60;;;19.00;99.90;;;;;;5060545;28;20288;-73
2023/09/02 08:08:51;;;;;;;2.53;2.33;;;19.00;99.90;;;;;;5079040;28;20188;-73
2023/09/02 08:11:19;;;;;;;2.65;2.45;;;19.10;99.90;;;;;;5060474;28;20200;-73
2023/09/02 08:13:52;;;;;;;2.47;2.28;;;19.20;99.90;;;;;;5062400;28;20198;-74
2023/09/02 08:16:23;;;;;;;2.72;2.40;;;19.20;99.90;;;;;;5076486;28;20237;-72
2023/09/02 08:18:51;;;;;;;2.65;2.45;;;19.30;99.90;;;;;;5067958;28;20319;-76
2023/09/02 08:21:19;;;;;;;2.30;2.10;;;19.40;99.90;;;;;;5060450;28;20204;-76
2023/09/02 08:23:47;;;;;;;3.38;2.30;;;19.40;99.90;;;;;;5060233;28;20182;-73
2023/09/02 08:26:15;;;;;;;2.28;2.03;;;19.50;99.90;;;;;;5060546;28;20215;-76
2023/09/02 08:28:42;;;;;;;2.45;2.17;;;19.60;99.90;;;;;;5060386;28;20169;-73
2023/09/02 08:31:17;;;;;;;3.03;2.33;;;19.60;99.90;;;;;;5060877;28;20177;-74
2023/09/02 08:33:51;;;;;;;2.10;1.90;;;19.70;99.90;;;;;;5060522;28;20196;-74
2023/09/02 08:36:17;;;;;;;2.00;1.80;;;19.80;99.90;;;;;;5060849;28;20571;-73
2023/09/02 08:38:48;;;;;;;1.92;1.73;;;19.90;99.90;;;;;;5060561;28;20239;-73
2023/09/02 08:41:25;;;;;;;1.95;1.75;;;19.90;99.90;;;;;;5060434;28;20203;-74
2023/09/02 08:44:00;;;;;;;1.95;1.65;;;20.10;99.90;;;;;;5060627;28;20200;-74
2023/09/02 08:46:34;;;;;;;1.92;1.67;;;20.10;99.90;;;;;;5061154;28;20181;-74
2023/09/02 08:49:00;;;;;;;1.75;1.52;;;20.30;99.90;;;;;;5060484;28;20196;-73
2023/09/02 08:51:32;;;;;;;1.75;1.23;;;20.30;99.90;;;;;;5060056;28;20214;-74
2023/09/02 08:53:58;;;;;;;1.35;1.25;;;20.40;99.90;;;;;;5059760;28;20231;-73
2023/09/02 08:56:25;;;;;;;2.78;1.48;;;20.50;99.90;;;;;;5060098;28;20177;-74
2023/09/02 08:58:58;;;;;;;1.25;1.15;;;20.50;99.90;;;;;;5060052;28;20201;-74
2023/09/02 09:01:24;;;;;;;1.48;1.38;;;20.60;99.90;;;;;;5059746;28;20200;-73
2023/09/02 09:03:55;;;;;;;2.60;2.30;;;20.70;99.90;;;;;;5060358;28;20193;-72
2023/09/02 09:06:23;;;;;;;2.60;2.03;;;20.80;99.90;;;;;;5060708;28;20164;-74
2023/09/02 09:08:50;;;;;;;2.28;1.60;;;20.90;99.90;;;;;;5059999;28;20192;-74
2023/09/02 09:11:17;;;;;;;1.42;1.33;;;21.00;99.90;;;;;;5060215;28;20176;-73
2023/09/02 09:13:51;;;;;;;1.50;1.40;;;21.10;99.90;;;;;;5059963;28;20184;-73
2023/09/02 09:16:31;;;;;;;1.35;1.25;;;21.20;99.90;;;;;;5059943;28;20180;-74
2023/09/02 09:18:57;;;;;;;2.20;1.35;;;21.30;99.90;;;;;;5059240;28;20256;-73
2023/09/02 09:21:26;;;;;;;1.30;1.20;;;21.40;99.90;;;;;;5059804;28;20200;-73
2023/09/02 09:23:55;;;;;;;1.30;1.20;;;21.40;99.90;;;;;;5059110;28;20181;-73
2023/09/02 09:26:22;;;;;;;1.30;1.20;;;21.50;99.90;;;;;;5059506;28;20176;-74
2023/09/02 09:29:05;;;;;;;1.80;1.13;;;21.50;99.90;;;;;;5040214;28;20264;-75
2023/09/02 09:31:35;;;;;;;1.65;1.00;;;21.60;99.90;;;;;;5056697;28;20537;-74
2023/09/02 09:34:01;;;;;;;1.38;1.25;;;21.60;99.90;;;;;;5055717;28;20165;-74
2023/09/02 09:36:31;;;;;;;2.10;1.08;;;21.70;99.90;;;;;;5039701;28;20298;-73
2023/09/02 09:39:02;;;;;;;1.20;1.00;;;21.80;99.90;;;;;;5067833;28;20179;-73
2023/09/02 09:41:40;;;;;;;1.25;1.10;;;21.90;99.90;;;;;;5079035;28;20219;-73
2023/09/02 09:44:16;;;;;;;1.17;1.02;;;22.00;99.90;;;;;;5079525;28;20167;-73
2023/09/02 09:46:51;;;;;;;1.13;0.93;;;22.10;99.90;;;;;;5079337;28;20171;-73
2023/09/02 09:49:28;;;;;;;1.50;1.02;;;22.30;99.90;;;;;;5079393;28;20168;-73
2023/09/02 09:52:00;;;;;;;1.20;1.00;;;22.40;99.90;;;;;;5079836;28;20207;-73
2023/09/02 09:54:56;;;;;;;1.50;1.10;;;22.60;99.90;;;;;;5080406;28;20182;-73
2023/09/02 09:57:34;;;;;;;1.58;1.10;;;22.70;99.90;;;;;;5064573;28;20187;-73
2023/09/02 10:00:00;;;;;;;1.65;1.20;;;22.90;99.90;;;;;;5078110;28;20203;-73
2023/09/02 10:02:37;;;;;;;1.15;1.02;;;23.30;99.90;;;;;;5059331;28;20196;-72
2023/09/02 10:05:03;;;;;;;1.40;1.30;;;23.80;99.90;;;;;;5058797;28;20164;-73
2023/09/02 10:07:33;;;;;;;1.25;1.00;;;24.40;99.90;;;;;;5058999;28;20179;-71
2023/09/02 10:10:13;;;;;;;1.83;1.10;;;25.10;99.90;;;;;;5055367;28;20268;-74
2023/09/02 10:12:51;;;;;;;1.25;1.10;;;25.80;99.90;;;;;;5038915;28;20201;-71
2023/09/02 10:15:24;;;;;;;1.20;1.00;;;26.40;99.90;;;;;;5038596;28;20192;-71
2023/09/02 10:18:11;;;;;;;3.08;1.02;;;27.00;99.90;;;;;;5039359;28;20177;-71
2023/09/02 10:20:38;;;;;;;1.20;0.80;;;27.60;99.90;;;;;;5039024;28;20204;-72
2023/09/02 10:23:08;;;;;;;1.45;1.00;;;28.10;99.90;;;;;;5043601;28;20168;-72
2023/09/02 10:25:56;;;;;;;1.10;1.00;;;28.40;99.90;;;;;;5059105;28;20164;-73
2023/09/02 10:28:40;;;;;;;2.45;1.05;;;28.80;99.90;;;;;;5058682;28;20275;-73
2023/09/02 10:31:19;;;;;;;1.10;1.00;;;29.00;99.90;;;;;;5059626;28;20176;-71
2023/09/02 10:33:45;;;;;;;1.40;1.10;;;29.50;99.90;;;;;;5059038;28;20532;-72
2023/09/02 10:36:18;;;;;;;1.42;1.20;;;29.50;99.90;;;;;;5059179;28;20168;-72
2023/09/02 10:38:49;;;;;;;1.20;0.80;;;29.70;99.90;;;;;;5058932;28;20192;-72
2023/09/02 10:41:16;;;;;;;1.00;0.90;;;29.90;99.90;;;;;;5058374;28;20224;-71
2023/09/02 10:43:53;;;;;;;1.20;1.00;;;30.10;99.90;;;;;;5059296;28;20271;-71
2023/09/02 10:46:19;;;;;;;1.08;0.70;;;30.20;99.90;;;;;;5063577;28;20171;-72
2023/09/02 10:48:53;;;;;;;1.38;0.90;;;30.30;99.90;;;;;;5064020;28;20192;-70
2023/09/02 10:51:21;;;;;;;1.17;0.90;;;30.40;99.90;;;;;;5059622;28;20204;-69
2023/09/02 10:53:55;;;;;;;1.08;0.70;;;30.50;99.90;;;;;;5058340;28;20203;-71
2023/09/02 10:56:30;;;;;;;0.60;0.60;;;30.50;99.90;;;;;;5058763;28;20168;-71
2023/09/02 10:58:59;;;;;;;1.35;0.80;;;30.60;99.90;;;;;;5058849;28;20195;-72
2023/09/02 11:01:50;;;;;;;1.25;0.80;;;30.70;99.90;;;;;;5058772;28;20196;-71
2023/09/02 11:04:44;;;;;;;1.92;0.80;;;30.70;99.90;;;;;;5058867;28;20230;-71
2023/09/02 11:07:24;;;;;;;0.88;0.68;;;30.80;99.90;;;;;;5058458;28;20254;-72
2023/09/02 11:09:54;;;;;;;1.13;0.82;;;30.80;99.90;;;;;;5058017;28;20199;-72
2023/09/02 11:12:23;;;;;;;1.10;0.77;;;30.80;99.90;;;;;;5058833;28;20168;-72
2023/09/02 11:15:15;;;;;;;1.08;0.80;;;30.80;99.90;;;;;;5058624;28;20206;-72
2023/09/02 11:17:42;;;;;;;2.35;0.73;;;30.80;99.90;;;;;;5056600;28;20199;-71
2023/09/02 11:20:09;;;;;;;2.00;0.75;;;30.80;99.90;;;;;;5059337;28;20303;-72
2023/09/02 11:22:56;;;;;;;0.95;0.70;;;30.80;99.90;;;;;;5058736;28;20178;-71
2023/09/02 11:25:36;;;;;;;1.10;0.70;;;30.80;99.90;;;;;;5058233;28;20207;-71
2023/09/02 11:28:03;;;;;;;0.88;0.70;;;30.80;99.90;;;;;;5059797;28;20225;-71
2023/09/02 11:30:30;;;;;;;0.77;0.60;;;30.80;99.90;;;;;;5060049;28;20286;-72
2023/09/02 11:32:57;;;;;;;0.80;0.70;;;30.80;99.90;;;;;;5058009;28;20187;-72
2023/09/02 11:35:51;;;;;;;1.00;0.80;;;30.80;99.90;;;;;;5057677;28;20202;-71
2023/09/02 11:38:22;;;;;;;1.92;0.85;;;30.90;99.90;;;;;;5058331;28;20180;-71
2023/09/02 11:40:48;;;;;;;1.13;0.85;;;31.00;99.90;;;;;;5061379;28;20208;-71
2023/09/02 11:43:20;;;;;;;0.90;0.60;;;31.10;99.90;;;;;;5065316;28;20181;-72
2023/09/02 11:45:46;;;;;;;0.70;0.60;;;31.10;99.90;;;;;;5063947;28;20196;-71
2023/09/02 11:48:12;;;;;;;1.52;0.63;;;31.00;99.90;;;;;;5062752;28;20175;-71
2023/09/02 11:50:38;;;;;;;0.80;0.60;;;30.90;99.90;;;;;;5062315;28;20283;-71
2023/09/02 11:53:07;;;;;;;1.00;0.60;;;30.80;99.90;;;;;;5061697;28;20180;-71
2023/09/02 11:55:35;;;;;;;1.42;0.80;;;30.80;99.90;;;;;;5061525;28;20172;-70
2023/09/02 11:58:14;;;;;;;0.90;0.80;;;30.50;99.90;;;;;;5062945;28;20183;-73
2023/09/02 12:00:56;;;;;;;0.77;0.60;;;30.30;99.90;;;;;;5064942;28;20188;-74
2023/09/02 12:03:28;;;;;;;0.93;0.68;;;30.20;99.90;;;;;;5062002;28;20221;-71
2023/09/02 12:06:01;;;;;;;0.80;0.60;;;30.20;99.90;;;;;;5060961;28;20193;-72
2023/09/02 12:08:30;;;;;;;0.93;0.70;;;30.20;99.90;;;;;;5061340;28;20183;-71
2023/09/02 12:11:11;;;;;;;1.08;0.77;;;30.20;99.90;;;;;;5061245;28;20212;-71
2023/09/02 12:13:39;;;;;;;0.68;0.50;;;30.20;99.90;;;;;;5060793;28;20203;-72
2023/09/02 12:16:05;;;;;;;2.10;0.80;;;30.30;99.90;;;;;;5064034;28;20184;-72
2023/09/02 12:18:38;;;;;;;0.80;0.60;;;30.20;99.90;;;;;;5066171;28;20172;-72
2023/09/02 12:21:06;;;;;;;1.55;0.88;;;30.20;99.90;;;;;;5063021;28;20188;-73
2023/09/02 12:23:56;;;;;;;0.93;0.80;;;30.20;99.90;;;;;;5060642;28;20176;-73
2023/09/02 12:26:24;;;;;;;1.30;0.82;;;30.30;99.90;;;;;;5078347;28;20204;-71
2023/09/02 12:28:52;;;;;;;0.60;0.60;;;30.30;99.90;;;;;;5061577;28;20184;-71
2023/09/02 12:31:18;;;;;;;0.80;0.60;;;30.40;99.90;;;;;;5062990;28;20243;-72
2023/09/02 12:33:47;;;;;;;0.85;0.52;;;30.40;99.90;;;;;;5061485;28;20172;-71
2023/09/02 12:36:21;;;;;;;1.00;0.70;;;30.40;99.90;;;;;;5061451;28;20176;-72
2023/09/02 12:38:53;;;;;;;1.10;0.70;;;30.40;99.90;;;;;;5074391;28;20198;-72
2023/09/02 12:41:18;;;;;;;1.08;0.60;;;30.30;99.90;;;;;;5080667;28;20195;-72
2023/09/02 12:43:50;;;;;;;1.27;0.80;;;30.20;99.90;;;;;;5081067;28;20243;-72
2023/09/02 12:46:24;;;;;;;1.33;0.98;;;30.10;99.90;;;;;;5079854;28;20184;-71
2023/09/02 12:48:50;;;;;;;1.40;0.95;;;30.00;99.90;;;;;;5060745;28;20357;-71
2023/09/02 12:51:29;;;;;;;0.90;0.60;;;30.00;99.90;;;;;;5059951;28;20187;-72
2023/09/02 12:53:55;;;;;;;0.68;0.60;;;30.10;99.90;;;;;;5059762;28;20195;-72
2023/09/02 12:56:20;;;;;;;1.15;0.65;;;30.20;99.90;;;;;;5061083;28;20186;-73
2023/09/02 12:58:46;;;;;;;0.90;0.70;;;30.30;99.90;;;;;;5078078;28;20192;-72
2023/09/02 13:01:12;;;;;;;0.95;0.85;;;30.30;99.90;;;;;;5060927;28;20211;-72
2023/09/02 13:03:47;;;;;;;1.27;1.00;;;30.40;99.90;;;;;;5060434;28;20188;-72
2023/09/02 13:06:18;;;;;;;1.15;0.95;;;30.50;99.90;;;;;;5060597;28;20210;-72